LAN842 SCIP-SCEL
Flight info
| Callsign | LAN842 |
|---|---|
| Flight time | 4h 8m |
| Altitude | 39000 |
| Route | EROPI2J EROPI UT316 NEDOM/N0479F410 UT316 VTN VTN1D |
| Aircraft | A359/H-SDE2E3GHIJ3J4J5LM1ORWXY/LB1D1 |
Departure
| Time | 2026-04-14 02:25 |
|---|---|
| Airport | Mataveri International Airport (SCIP) |
Arrival
| Time | 2026-04-14 06:34 |
|---|---|
| Airport | Comodoro Arturo Merino Benítez International Airport (SCEL) |
| Time | Latitude | Longitude | Altitude | Speed | Heading |
|---|---|---|---|---|---|
| 2026-04-14 01:46 | -27.16001 | -109.42862 | 165 ft | 0 kts | 298° |
| 2026-04-14 02:18 | -27.16002 | -109.42873 | 165 ft | 1 kts | 258° |
| 2026-04-14 02:18 | -27.16003 | -109.42874 | 165 ft | 0 kts | 254° |
| 2026-04-14 02:18 | -27.16009 | -109.42892 | 165 ft | 5 kts | 243° |
| 2026-04-14 02:18 | -27.16013 | -109.42941 | 163 ft | 9 kts | 271° |
| 2026-04-14 02:19 | -27.16024 | -109.42999 | 162 ft | 2 kts | 209° |
| 2026-04-14 02:19 | -27.16031 | -109.43002 | 162 ft | 0 kts | 201° |
| 2026-04-14 02:19 | -27.16036 | -109.43003 | 162 ft | 3 kts | 198° |
| 2026-04-14 02:19 | -27.16084 | -109.43024 | 163 ft | 10 kts | 213° |
| 2026-04-14 02:20 | -27.16084 | -109.43055 | 162 ft | 5 kts | 295° |
| 2026-04-14 02:20 | -27.16038 | -109.43154 | 155 ft | 22 kts | 298° |
| 2026-04-14 02:20 | -27.15960 | -109.43323 | 145 ft | 27 kts | 297° |
| 2026-04-14 02:20 | -27.15897 | -109.43461 | 141 ft | 0 kts | 296° |
| 2026-04-14 02:21 | -27.15893 | -109.43471 | 140 ft | 4 kts | 296° |
| 2026-04-14 02:21 | -27.15869 | -109.43525 | 140 ft | 10 kts | 296° |
| 2026-04-14 02:21 | -27.15831 | -109.43595 | 140 ft | 8 kts | 324° |
| 2026-04-14 02:21 | -27.15785 | -109.43612 | 140 ft | 7 kts | 328° |
| 2026-04-14 02:22 | -27.15785 | -109.43631 | 140 ft | 1 kts | 244° |
| 2026-04-14 02:22 | -27.15793 | -109.43637 | 139 ft | 4 kts | 213° |
| 2026-04-14 02:22 | -27.15814 | -109.43634 | 140 ft | 1 kts | 140° |
| 2026-04-14 02:22 | -27.15815 | -109.43631 | 140 ft | 0 kts | 132° |
| 2026-04-14 02:23 | -27.15820 | -109.43623 | 140 ft | 0 kts | 122° |
| 2026-04-14 02:24 | -27.15843 | -109.43578 | 140 ft | 25 kts | 119° |
| 2026-04-14 02:24 | -27.16032 | -109.43164 | 154 ft | 91 kts | 117° |
| 2026-04-14 02:24 | -27.16412 | -109.42333 | 212 ft | 145 kts | 117° |
| 2026-04-14 02:25 | -27.16746 | -109.41604 | 408 ft | 158 kts | 119° |
| 2026-04-14 02:25 | -27.17396 | -109.40164 | 1286 ft | 159 kts | 120° |
| 2026-04-14 02:25 | -27.17744 | -109.39409 | 1520 ft | 170 kts | 120° |
| 2026-04-14 02:25 | -27.18313 | -109.38180 | 1796 ft | 185 kts | 119° |
| 2026-04-14 02:26 | -27.18928 | -109.36832 | 2038 ft | 204 kts | 118° |
| 2026-04-14 02:26 | -27.19607 | -109.35339 | 2302 ft | 223 kts | 118° |
| 2026-04-14 02:26 | -27.20340 | -109.33725 | 2622 ft | 240 kts | 118° |
| 2026-04-14 02:26 | -27.21111 | -109.32030 | 3126 ft | 248 kts | 118° |
| 2026-04-14 02:27 | -27.21902 | -109.30287 | 3693 ft | 253 kts | 118° |
| 2026-04-14 02:27 | -27.22709 | -109.28508 | 4273 ft | 257 kts | 118° |
| 2026-04-14 02:27 | -27.23526 | -109.26710 | 4875 ft | 260 kts | 118° |
| 2026-04-14 02:27 | -27.24343 | -109.24889 | 5457 ft | 263 kts | 116° |
| 2026-04-14 02:28 | -27.24887 | -109.22918 | 6001 ft | 268 kts | 99° |
| 2026-04-14 02:28 | -27.25061 | -109.20829 | 6594 ft | 270 kts | 95° |
| 2026-04-14 02:28 | -27.25195 | -109.18706 | 7120 ft | 273 kts | 95° |
| 2026-04-14 02:28 | -27.25339 | -109.16567 | 7643 ft | 276 kts | 96° |
| 2026-04-14 02:29 | -27.25489 | -109.14402 | 8175 ft | 279 kts | 96° |
| 2026-04-14 02:29 | -27.25643 | -109.12209 | 8718 ft | 282 kts | 96° |
| 2026-04-14 02:29 | -27.25799 | -109.09999 | 9271 ft | 285 kts | 96° |
| 2026-04-14 02:29 | -27.25958 | -109.07759 | 9832 ft | 288 kts | 96° |
| 2026-04-14 02:30 | -27.26120 | -109.05485 | 10270 ft | 295 kts | 96° |
| 2026-04-14 02:30 | -27.26288 | -109.03133 | 10520 ft | 308 kts | 96° |
| 2026-04-14 02:30 | -27.26462 | -109.00686 | 10770 ft | 320 kts | 96° |
| 2026-04-14 02:30 | -27.26639 | -108.98182 | 11015 ft | 332 kts | 96° |
| 2026-04-14 02:31 | -27.26826 | -108.95538 | 11315 ft | 349 kts | 96° |
| 2026-04-14 02:31 | -27.27022 | -108.92758 | 11645 ft | 363 kts | 96° |
| 2026-04-14 02:31 | -27.27225 | -108.89857 | 12138 ft | 371 kts | 96° |
| 2026-04-14 02:31 | -27.27428 | -108.86949 | 12705 ft | 376 kts | 96° |
| 2026-04-14 02:32 | -27.27634 | -108.83983 | 13275 ft | 381 kts | 95° |
| 2026-04-14 02:32 | -27.27841 | -108.81005 | 13812 ft | 386 kts | 95° |
| 2026-04-14 02:32 | -27.28048 | -108.78023 | 14316 ft | 390 kts | 95° |
| 2026-04-14 02:32 | -27.28261 | -108.74928 | 14826 ft | 394 kts | 95° |
| 2026-04-14 02:33 | -27.28474 | -108.71834 | 15331 ft | 397 kts | 95° |
| 2026-04-14 02:33 | -27.28686 | -108.68729 | 15822 ft | 401 kts | 95° |
| 2026-04-14 02:33 | -27.28902 | -108.65582 | 16319 ft | 404 kts | 95° |
| 2026-04-14 02:34 | -27.29334 | -108.59225 | 17295 ft | 411 kts | 95° |
| 2026-04-14 02:34 | -27.29552 | -108.56010 | 17766 ft | 414 kts | 95° |
| 2026-04-14 02:34 | -27.29771 | -108.52757 | 18250 ft | 418 kts | 95° |
| 2026-04-14 02:34 | -27.29991 | -108.49487 | 18690 ft | 421 kts | 95° |
| 2026-04-14 02:35 | -27.30212 | -108.46190 | 19110 ft | 424 kts | 95° |
| 2026-04-14 02:35 | -27.30433 | -108.42868 | 19529 ft | 426 kts | 95° |
| 2026-04-14 02:35 | -27.30655 | -108.39542 | 19987 ft | 429 kts | 95° |
| 2026-04-14 02:35 | -27.30876 | -108.36195 | 20423 ft | 431 kts | 95° |
| 2026-04-14 02:36 | -27.31102 | -108.32826 | 20881 ft | 434 kts | 95° |
| 2026-04-14 02:36 | -27.31522 | -108.29440 | 21318 ft | 436 kts | 103° |
| 2026-04-14 02:36 | -27.32317 | -108.26152 | 21769 ft | 438 kts | 108° |
| 2026-04-14 02:36 | -27.33277 | -108.22882 | 22202 ft | 440 kts | 110° |
| 2026-04-14 02:37 | -27.34312 | -108.19632 | 22646 ft | 443 kts | 111° |
| 2026-04-14 02:37 | -27.35378 | -108.16367 | 23077 ft | 446 kts | 111° |
| 2026-04-14 02:37 | -27.36451 | -108.13072 | 23514 ft | 449 kts | 111° |
| 2026-04-14 02:37 | -27.37504 | -108.09795 | 23924 ft | 452 kts | 111° |
| 2026-04-14 02:38 | -27.38562 | -108.06460 | 24306 ft | 455 kts | 111° |
| 2026-04-14 02:38 | -27.39620 | -108.03090 | 24708 ft | 457 kts | 110° |
| 2026-04-14 02:38 | -27.40676 | -107.99700 | 25148 ft | 460 kts | 111° |
| 2026-04-14 02:38 | -27.41735 | -107.96293 | 25599 ft | 462 kts | 111° |
| 2026-04-14 02:39 | -27.42798 | -107.92864 | 26038 ft | 465 kts | 111° |
| 2026-04-14 02:39 | -27.43867 | -107.89415 | 26493 ft | 467 kts | 111° |
| 2026-04-14 02:39 | -27.44941 | -107.85949 | 26936 ft | 470 kts | 111° |
| 2026-04-14 02:39 | -27.46018 | -107.82472 | 27376 ft | 472 kts | 111° |
| 2026-04-14 02:40 | -27.47101 | -107.78970 | 27815 ft | 475 kts | 111° |
| 2026-04-14 02:40 | -27.48180 | -107.75483 | 28237 ft | 477 kts | 111° |
| 2026-04-14 02:40 | -27.49273 | -107.71945 | 28669 ft | 480 kts | 111° |
| 2026-04-14 02:40 | -27.50374 | -107.68378 | 29102 ft | 483 kts | 111° |
| 2026-04-14 02:41 | -27.51478 | -107.64796 | 29508 ft | 486 kts | 111° |
| 2026-04-14 02:41 | -27.52589 | -107.61188 | 29909 ft | 488 kts | 111° |
| 2026-04-14 02:41 | -27.53704 | -107.57564 | 30291 ft | 490 kts | 111° |
| 2026-04-14 02:41 | -27.54826 | -107.53914 | 30607 ft | 493 kts | 111° |
| 2026-04-14 02:42 | -27.55948 | -107.50258 | 30915 ft | 495 kts | 111° |
| 2026-04-14 02:42 | -27.57077 | -107.46576 | 31221 ft | 498 kts | 111° |
| 2026-04-14 02:42 | -27.58208 | -107.42883 | 31501 ft | 500 kts | 111° |
| 2026-04-14 02:42 | -27.59343 | -107.39174 | 31777 ft | 502 kts | 111° |
| 2026-04-14 02:43 | -27.60483 | -107.35442 | 32077 ft | 503 kts | 111° |
| 2026-04-14 02:43 | -27.61607 | -107.31759 | 32489 ft | 502 kts | 111° |
| 2026-04-14 02:43 | -27.62741 | -107.28039 | 32902 ft | 501 kts | 111° |
| 2026-04-14 02:43 | -27.63874 | -107.24316 | 33310 ft | 500 kts | 111° |
| 2026-04-14 02:44 | -27.65004 | -107.20608 | 33716 ft | 499 kts | 112° |
| 2026-04-14 02:44 | -27.66127 | -107.16917 | 34120 ft | 498 kts | 111° |
| 2026-04-14 02:44 | -27.67246 | -107.13218 | 34460 ft | 497 kts | 111° |
| 2026-04-14 02:44 | -27.68361 | -107.09525 | 34775 ft | 496 kts | 111° |
| 2026-04-14 02:45 | -27.69473 | -107.05834 | 35082 ft | 496 kts | 111° |
| 2026-04-14 02:45 | -27.70585 | -107.02144 | 35371 ft | 496 kts | 111° |
| 2026-04-14 02:45 | -27.71693 | -106.98465 | 35670 ft | 495 kts | 111° |
| 2026-04-14 02:45 | -27.72800 | -106.94784 | 35959 ft | 495 kts | 111° |
| 2026-04-14 02:46 | -27.73908 | -106.91101 | 36242 ft | 495 kts | 111° |
| 2026-04-14 02:46 | -27.75013 | -106.87421 | 36506 ft | 495 kts | 111° |
| 2026-04-14 02:46 | -27.76103 | -106.83792 | 36772 ft | 494 kts | 111° |
| 2026-04-14 02:46 | -27.77206 | -106.80113 | 37037 ft | 494 kts | 111° |
| 2026-04-14 02:47 | -27.78307 | -106.76436 | 37305 ft | 494 kts | 111° |
| 2026-04-14 02:47 | -27.79404 | -106.72768 | 37555 ft | 494 kts | 111° |
| 2026-04-14 02:47 | -27.80503 | -106.69092 | 37815 ft | 493 kts | 111° |
| 2026-04-14 02:47 | -27.81599 | -106.65417 | 38042 ft | 493 kts | 111° |
| 2026-04-14 02:48 | -27.82691 | -106.61754 | 38289 ft | 493 kts | 111° |
| 2026-04-14 02:48 | -27.83789 | -106.58069 | 38540 ft | 493 kts | 111° |
| 2026-04-14 02:48 | -27.84878 | -106.54407 | 38749 ft | 492 kts | 111° |
| 2026-04-14 02:48 | -27.85968 | -106.50741 | 38955 ft | 492 kts | 111° |
| 2026-04-14 02:49 | -27.87045 | -106.47112 | 39121 ft | 492 kts | 111° |
| 2026-04-14 02:49 | -27.89223 | -106.39765 | 39214 ft | 493 kts | 111° |
| 2026-04-14 02:50 | -27.91400 | -106.32398 | 39216 ft | 493 kts | 111° |
| 2026-04-14 02:50 | -27.93572 | -106.25038 | 39212 ft | 493 kts | 111° |
| 2026-04-14 02:51 | -27.95741 | -106.17671 | 39216 ft | 493 kts | 111° |
| 2026-04-14 02:51 | -27.97906 | -106.10302 | 39216 ft | 494 kts | 111° |
| 2026-04-14 02:52 | -28.00056 | -106.02965 | 39211 ft | 494 kts | 111° |
| 2026-04-14 02:52 | -28.02212 | -105.95594 | 39215 ft | 494 kts | 111° |
| 2026-04-14 02:53 | -28.04370 | -105.88201 | 39210 ft | 494 kts | 111° |
| 2026-04-14 02:53 | -28.06525 | -105.80801 | 39208 ft | 494 kts | 111° |
| 2026-04-14 02:54 | -28.08651 | -105.73379 | 39212 ft | 495 kts | 111° |
| 2026-04-14 02:54 | -28.10679 | -105.65981 | 39212 ft | 495 kts | 110° |
| 2026-04-14 02:55 | -28.12719 | -105.58515 | 39213 ft | 495 kts | 110° |
| 2026-04-14 02:55 | -28.14766 | -105.51061 | 39208 ft | 495 kts | 111° |
| 2026-04-14 02:56 | -28.16816 | -105.43601 | 39209 ft | 495 kts | 111° |
| 2026-04-14 02:56 | -28.18861 | -105.36151 | 39208 ft | 496 kts | 111° |
| 2026-04-14 02:57 | -28.20904 | -105.28687 | 39211 ft | 496 kts | 111° |
| 2026-04-14 02:57 | -28.22943 | -105.21216 | 39209 ft | 496 kts | 111° |
| 2026-04-14 02:58 | -28.24967 | -105.13782 | 39209 ft | 496 kts | 111° |
| 2026-04-14 02:58 | -28.26996 | -105.06316 | 39206 ft | 496 kts | 111° |
| 2026-04-14 02:59 | -28.29026 | -104.98824 | 39210 ft | 496 kts | 111° |
| 2026-04-14 02:59 | -28.31052 | -104.91330 | 39210 ft | 496 kts | 111° |
| 2026-04-14 03:00 | -28.33071 | -104.83845 | 39206 ft | 496 kts | 110° |
| 2026-04-14 03:00 | -28.35087 | -104.76353 | 39207 ft | 496 kts | 110° |
| 2026-04-14 03:01 | -28.37086 | -104.68908 | 39206 ft | 496 kts | 110° |
| 2026-04-14 03:01 | -28.39093 | -104.61411 | 39205 ft | 496 kts | 110° |
| 2026-04-14 03:02 | -28.41097 | -104.53908 | 39207 ft | 496 kts | 110° |
| 2026-04-14 03:02 | -28.43095 | -104.46413 | 39204 ft | 496 kts | 110° |
| 2026-04-14 03:03 | -28.45090 | -104.38906 | 39202 ft | 496 kts | 110° |
| 2026-04-14 03:03 | -28.47069 | -104.31445 | 39200 ft | 496 kts | 110° |
| 2026-04-14 03:04 | -28.49055 | -104.23938 | 39202 ft | 496 kts | 110° |
| 2026-04-14 03:04 | -28.51038 | -104.16424 | 39203 ft | 496 kts | 110° |
| 2026-04-14 03:05 | -28.53018 | -104.08902 | 39208 ft | 496 kts | 110° |
| 2026-04-14 03:05 | -28.54990 | -104.01392 | 39199 ft | 496 kts | 110° |
| 2026-04-14 03:06 | -28.56960 | -103.93870 | 39200 ft | 496 kts | 110° |
| 2026-04-14 03:06 | -28.58595 | -103.87616 | 39196 ft | 496 kts | 110° |
| 2026-04-14 03:07 | -28.60557 | -103.80088 | 39198 ft | 496 kts | 110° |
| 2026-04-14 03:07 | -28.62835 | -103.71328 | 39197 ft | 496 kts | 110° |
| 2026-04-14 03:08 | -28.64475 | -103.65007 | 39199 ft | 496 kts | 110° |
| 2026-04-14 03:08 | -28.66418 | -103.57501 | 39196 ft | 497 kts | 110° |
| 2026-04-14 03:09 | -28.68370 | -103.49941 | 39200 ft | 497 kts | 110° |
| 2026-04-14 03:09 | -28.70319 | -103.42369 | 39195 ft | 497 kts | 110° |
| 2026-04-14 03:10 | -28.72248 | -103.34859 | 39195 ft | 497 kts | 110° |
| 2026-04-14 03:10 | -28.74187 | -103.27294 | 39194 ft | 497 kts | 110° |
| 2026-04-14 03:11 | -28.76122 | -103.19722 | 39191 ft | 497 kts | 110° |
| 2026-04-14 03:11 | -28.78054 | -103.12140 | 39194 ft | 498 kts | 110° |
| 2026-04-14 03:12 | -28.79983 | -103.04554 | 39197 ft | 498 kts | 110° |
| 2026-04-14 03:12 | -28.81908 | -102.96965 | 39197 ft | 498 kts | 110° |
| 2026-04-14 03:13 | -28.83826 | -102.89379 | 39184 ft | 498 kts | 109° |
| 2026-04-14 03:13 | -28.85745 | -102.81774 | 39184 ft | 498 kts | 109° |
| 2026-04-14 03:14 | -28.87655 | -102.74184 | 39188 ft | 498 kts | 109° |
| 2026-04-14 03:14 | -28.89567 | -102.66568 | 39185 ft | 499 kts | 109° |
| 2026-04-14 03:15 | -28.91470 | -102.58963 | 39183 ft | 499 kts | 109° |
| 2026-04-14 03:15 | -28.93365 | -102.51376 | 39184 ft | 499 kts | 109° |
| 2026-04-14 03:16 | -28.95262 | -102.43756 | 39188 ft | 499 kts | 109° |
| 2026-04-14 03:16 | -28.97157 | -102.36126 | 39183 ft | 499 kts | 109° |
| 2026-04-14 03:17 | -28.99049 | -102.28490 | 39185 ft | 499 kts | 109° |
| 2026-04-14 03:17 | -29.01879 | -102.17028 | 39177 ft | 499 kts | 109° |
| 2026-04-14 03:18 | -29.03760 | -102.09383 | 39185 ft | 500 kts | 109° |
| 2026-04-14 03:18 | -29.05637 | -102.01735 | 39178 ft | 500 kts | 109° |
| 2026-04-14 03:19 | -29.07511 | -101.94077 | 39179 ft | 500 kts | 109° |
| 2026-04-14 03:19 | -29.09381 | -101.86418 | 39179 ft | 500 kts | 109° |
| 2026-04-14 03:20 | -29.11251 | -101.78737 | 39177 ft | 501 kts | 109° |
| 2026-04-14 03:20 | -29.13113 | -101.71069 | 39171 ft | 501 kts | 109° |
| 2026-04-14 03:21 | -29.14961 | -101.63436 | 39173 ft | 501 kts | 108° |
| 2026-04-14 03:21 | -29.16822 | -101.55730 | 39174 ft | 501 kts | 108° |
| 2026-04-14 03:22 | -29.18674 | -101.48040 | 39172 ft | 502 kts | 108° |
| 2026-04-14 03:22 | -29.20526 | -101.40329 | 39181 ft | 502 kts | 108° |
| 2026-04-14 03:23 | -29.22375 | -101.32607 | 39170 ft | 502 kts | 108° |
| 2026-04-14 03:23 | -29.24219 | -101.24888 | 39170 ft | 502 kts | 108° |
| 2026-04-14 03:24 | -29.26047 | -101.17213 | 39167 ft | 502 kts | 108° |
| 2026-04-14 03:24 | -29.27881 | -101.09491 | 39168 ft | 503 kts | 108° |
| 2026-04-14 03:25 | -29.29716 | -101.01746 | 39169 ft | 503 kts | 108° |
| 2026-04-14 03:25 | -29.31543 | -100.94010 | 39170 ft | 503 kts | 108° |
| 2026-04-14 03:26 | -29.33371 | -100.86251 | 39170 ft | 503 kts | 108° |
| 2026-04-14 03:26 | -29.35179 | -100.78551 | 39166 ft | 504 kts | 108° |
| 2026-04-14 03:27 | -29.36997 | -100.70790 | 39165 ft | 504 kts | 108° |
| 2026-04-14 03:27 | -29.38811 | -100.63021 | 39163 ft | 504 kts | 107° |
| 2026-04-14 03:28 | -29.40625 | -100.55234 | 39162 ft | 504 kts | 107° |
| 2026-04-14 03:28 | -29.42429 | -100.47465 | 39163 ft | 505 kts | 107° |
| 2026-04-14 03:29 | -29.44235 | -100.39668 | 39158 ft | 505 kts | 107° |
| 2026-04-14 03:29 | -29.46033 | -100.31879 | 39159 ft | 505 kts | 107° |
| 2026-04-14 03:30 | -29.47829 | -100.24081 | 39156 ft | 505 kts | 107° |
| 2026-04-14 03:30 | -29.49619 | -100.16282 | 39152 ft | 505 kts | 107° |
| 2026-04-14 03:31 | -29.51407 | -100.08471 | 39155 ft | 506 kts | 107° |
| 2026-04-14 03:31 | -29.53169 | -100.00753 | 39156 ft | 506 kts | 107° |
| 2026-04-14 03:32 | -29.54987 | -99.92878 | 39154 ft | 506 kts | 107° |
| 2026-04-14 03:32 | -29.56838 | -99.85007 | 39150 ft | 506 kts | 107° |
| 2026-04-14 03:33 | -29.58669 | -99.77188 | 39150 ft | 507 kts | 107° |
| 2026-04-14 03:33 | -29.60481 | -99.69402 | 39148 ft | 507 kts | 107° |
| 2026-04-14 03:34 | -29.63207 | -99.57624 | 39145 ft | 508 kts | 107° |
| 2026-04-14 03:35 | -29.65020 | -99.49761 | 39147 ft | 508 kts | 107° |
| 2026-04-14 03:35 | -29.66828 | -99.41901 | 39144 ft | 509 kts | 107° |
| 2026-04-14 03:36 | -29.68633 | -99.34029 | 39145 ft | 509 kts | 107° |
| 2026-04-14 03:36 | -29.70432 | -99.26163 | 39143 ft | 509 kts | 106° |
| 2026-04-14 03:37 | -29.72231 | -99.18270 | 39141 ft | 509 kts | 106° |
| 2026-04-14 03:37 | -29.74025 | -99.10379 | 39140 ft | 510 kts | 106° |
| 2026-04-14 03:38 | -29.75815 | -99.02478 | 39141 ft | 510 kts | 106° |
| 2026-04-14 03:38 | -29.77603 | -98.94565 | 39142 ft | 511 kts | 106° |
| 2026-04-14 03:39 | -29.79378 | -98.86688 | 39137 ft | 511 kts | 106° |
| 2026-04-14 03:39 | -29.81161 | -98.78750 | 39138 ft | 511 kts | 106° |
| 2026-04-14 03:40 | -29.82933 | -98.70837 | 39138 ft | 512 kts | 106° |
| 2026-04-14 03:40 | -29.84722 | -98.62823 | 39136 ft | 512 kts | 106° |
| 2026-04-14 03:41 | -29.86504 | -98.54814 | 39126 ft | 512 kts | 105° |
| 2026-04-14 03:41 | -29.87973 | -98.48195 | 39132 ft | 513 kts | 105° |
| 2026-04-14 03:42 | -29.89731 | -98.40251 | 39132 ft | 513 kts | 105° |
| 2026-04-14 03:42 | -29.91507 | -98.32204 | 39125 ft | 513 kts | 105° |
| 2026-04-14 03:43 | -29.93263 | -98.24219 | 39128 ft | 514 kts | 105° |
| 2026-04-14 03:43 | -29.95013 | -98.16237 | 39127 ft | 514 kts | 105° |
| 2026-04-14 03:44 | -29.96764 | -98.08231 | 39124 ft | 514 kts | 105° |
| 2026-04-14 03:44 | -29.98508 | -98.00224 | 39122 ft | 515 kts | 105° |
| 2026-04-14 03:45 | -30.00227 | -97.92312 | 39124 ft | 515 kts | 105° |
| 2026-04-14 03:45 | -30.01974 | -97.84246 | 39122 ft | 515 kts | 105° |
| 2026-04-14 03:46 | -30.03729 | -97.76117 | 39121 ft | 516 kts | 105° |
| 2026-04-14 03:46 | -30.05457 | -97.68082 | 39120 ft | 516 kts | 105° |
| 2026-04-14 03:47 | -30.07183 | -97.60039 | 39120 ft | 516 kts | 105° |
| 2026-04-14 03:47 | -30.08896 | -97.52027 | 39124 ft | 517 kts | 105° |
| 2026-04-14 03:48 | -30.10614 | -97.43965 | 39125 ft | 517 kts | 105° |
| 2026-04-14 03:48 | -30.12330 | -97.35887 | 39111 ft | 518 kts | 105° |
| 2026-04-14 03:49 | -30.14042 | -97.27805 | 39113 ft | 519 kts | 104° |
| 2026-04-14 03:49 | -30.15766 | -97.19635 | 39113 ft | 519 kts | 104° |
| 2026-04-14 03:50 | -30.17469 | -97.11539 | 39109 ft | 520 kts | 104° |
| 2026-04-14 03:50 | -30.19175 | -97.03402 | 39108 ft | 520 kts | 104° |
| 2026-04-14 03:51 | -30.20876 | -96.95266 | 39108 ft | 520 kts | 104° |
| 2026-04-14 03:51 | -30.22575 | -96.87108 | 39106 ft | 521 kts | 104° |
| 2026-04-14 03:52 | -30.24267 | -96.78959 | 39108 ft | 521 kts | 104° |
| 2026-04-14 03:52 | -30.25952 | -96.70817 | 39104 ft | 521 kts | 104° |
| 2026-04-14 03:53 | -30.27637 | -96.62645 | 39099 ft | 522 kts | 104° |
| 2026-04-14 03:53 | -30.29318 | -96.54468 | 39100 ft | 522 kts | 104° |
| 2026-04-14 03:54 | -30.30998 | -96.46267 | 39101 ft | 522 kts | 104° |
| 2026-04-14 03:54 | -30.32667 | -96.38092 | 39100 ft | 523 kts | 104° |
| 2026-04-14 03:55 | -30.34336 | -96.29892 | 39100 ft | 523 kts | 104° |
| 2026-04-14 03:55 | -30.36010 | -96.21634 | 39096 ft | 523 kts | 104° |
| 2026-04-14 03:56 | -30.37668 | -96.13432 | 39093 ft | 524 kts | 104° |
| 2026-04-14 03:56 | -30.39318 | -96.05237 | 39093 ft | 524 kts | 104° |
| 2026-04-14 03:57 | -30.40978 | -95.96965 | 39094 ft | 525 kts | 104° |
| 2026-04-14 03:57 | -30.42628 | -95.88717 | 39090 ft | 525 kts | 104° |
| 2026-04-14 03:58 | -30.44273 | -95.80463 | 39088 ft | 526 kts | 104° |
| 2026-04-14 03:58 | -30.45913 | -95.72202 | 39090 ft | 526 kts | 104° |
| 2026-04-14 03:59 | -30.47565 | -95.63854 | 39087 ft | 527 kts | 104° |
| 2026-04-14 03:59 | -30.49199 | -95.55573 | 39087 ft | 527 kts | 103° |
| 2026-04-14 04:00 | -30.50830 | -95.47274 | 39085 ft | 528 kts | 103° |
| 2026-04-14 04:00 | -30.52463 | -95.38933 | 39092 ft | 528 kts | 103° |
| 2026-04-14 04:01 | -30.54086 | -95.30611 | 39086 ft | 528 kts | 103° |
| 2026-04-14 04:01 | -30.55703 | -95.22296 | 39084 ft | 529 kts | 103° |
| 2026-04-14 04:02 | -30.57318 | -95.13959 | 39081 ft | 529 kts | 103° |
| 2026-04-14 04:02 | -30.58923 | -95.05643 | 39080 ft | 529 kts | 103° |
| 2026-04-14 04:03 | -30.60524 | -94.97308 | 39079 ft | 529 kts | 103° |
| 2026-04-14 04:03 | -30.62068 | -94.88922 | 39080 ft | 530 kts | 102° |
| 2026-04-14 04:04 | -30.63579 | -94.80553 | 39090 ft | 529 kts | 102° |
| 2026-04-14 04:04 | -30.65097 | -94.72167 | 39076 ft | 530 kts | 102° |
| 2026-04-14 04:05 | -30.66622 | -94.63760 | 39076 ft | 531 kts | 102° |
| 2026-04-14 04:05 | -30.68141 | -94.55365 | 39071 ft | 531 kts | 102° |
| 2026-04-14 04:06 | -30.69654 | -94.46963 | 39072 ft | 531 kts | 102° |
| 2026-04-14 04:06 | -30.71162 | -94.38552 | 39069 ft | 531 kts | 102° |
| 2026-04-14 04:07 | -30.72413 | -94.31549 | 39069 ft | 532 kts | 102° |
| 2026-04-14 04:07 | -30.73912 | -94.23125 | 39071 ft | 532 kts | 102° |
| 2026-04-14 04:08 | -30.75408 | -94.14691 | 39068 ft | 532 kts | 102° |
| 2026-04-14 04:08 | -30.76897 | -94.06258 | 39067 ft | 532 kts | 102° |
| 2026-04-14 04:09 | -30.78373 | -93.97868 | 39067 ft | 532 kts | 102° |
| 2026-04-14 04:09 | -30.79852 | -93.89427 | 39065 ft | 532 kts | 102° |
| 2026-04-14 04:10 | -30.81324 | -93.80993 | 39066 ft | 533 kts | 102° |
| 2026-04-14 04:10 | -30.82794 | -93.72537 | 39062 ft | 533 kts | 102° |
| 2026-04-14 04:11 | -30.84256 | -93.64092 | 39063 ft | 533 kts | 102° |
| 2026-04-14 04:11 | -30.85715 | -93.55626 | 39106 ft | 534 kts | 102° |
| 2026-04-14 04:11 | -30.86443 | -93.51393 | 39282 ft | 534 kts | 102° |
| 2026-04-14 04:12 | -30.87170 | -93.47150 | 39492 ft | 533 kts | 102° |
| 2026-04-14 04:12 | -30.87888 | -93.42951 | 39695 ft | 532 kts | 102° |
| 2026-04-14 04:12 | -30.88614 | -93.38702 | 39864 ft | 532 kts | 102° |
| 2026-04-14 04:12 | -30.89335 | -93.34472 | 40038 ft | 532 kts | 102° |
| 2026-04-14 04:13 | -30.90055 | -93.30243 | 40198 ft | 532 kts | 102° |
| 2026-04-14 04:13 | -30.90772 | -93.26017 | 40400 ft | 531 kts | 102° |
| 2026-04-14 04:13 | -30.91478 | -93.21849 | 40554 ft | 531 kts | 102° |
| 2026-04-14 04:13 | -30.92191 | -93.17633 | 40709 ft | 531 kts | 102° |
| 2026-04-14 04:14 | -30.92902 | -93.13422 | 40850 ft | 531 kts | 102° |
| 2026-04-14 04:14 | -30.93622 | -93.09143 | 41012 ft | 530 kts | 102° |
| 2026-04-14 04:14 | -30.94331 | -93.04928 | 41059 ft | 531 kts | 102° |
| 2026-04-14 04:15 | -30.95735 | -92.96547 | 41054 ft | 530 kts | 102° |
| 2026-04-14 04:15 | -30.97151 | -92.88059 | 41059 ft | 530 kts | 102° |
| 2026-04-14 04:16 | -30.98553 | -92.79615 | 41048 ft | 530 kts | 102° |
| 2026-04-14 04:16 | -30.99948 | -92.71184 | 41055 ft | 530 kts | 102° |
| 2026-04-14 04:17 | -31.01338 | -92.62742 | 41053 ft | 530 kts | 102° |
| 2026-04-14 04:17 | -31.02724 | -92.54294 | 41053 ft | 530 kts | 102° |
| 2026-04-14 04:18 | -31.04110 | -92.45808 | 41055 ft | 530 kts | 102° |
| 2026-04-14 04:18 | -31.05482 | -92.37366 | 41050 ft | 530 kts | 102° |
| 2026-04-14 04:19 | -31.06850 | -92.28918 | 41050 ft | 531 kts | 102° |
| 2026-04-14 04:19 | -31.08213 | -92.20466 | 41049 ft | 530 kts | 102° |
| 2026-04-14 04:20 | -31.09574 | -92.11986 | 41043 ft | 531 kts | 102° |
| 2026-04-14 04:20 | -31.10929 | -92.03507 | 41049 ft | 530 kts | 102° |
| 2026-04-14 04:21 | -31.12275 | -91.95044 | 41048 ft | 531 kts | 102° |
| 2026-04-14 04:21 | -31.13615 | -91.86589 | 41045 ft | 530 kts | 102° |
| 2026-04-14 04:22 | -31.14951 | -91.78118 | 41044 ft | 530 kts | 102° |
| 2026-04-14 04:22 | -31.16284 | -91.69624 | 41051 ft | 530 kts | 102° |
| 2026-04-14 04:23 | -31.17612 | -91.61130 | 41049 ft | 530 kts | 102° |
| 2026-04-14 04:23 | -31.18930 | -91.52659 | 41046 ft | 530 kts | 102° |
| 2026-04-14 04:24 | -31.20244 | -91.44181 | 41044 ft | 530 kts | 102° |
| 2026-04-14 04:24 | -31.21552 | -91.35693 | 41043 ft | 530 kts | 102° |
| 2026-04-14 04:25 | -31.22854 | -91.27213 | 41048 ft | 530 kts | 102° |
| 2026-04-14 04:25 | -31.24142 | -91.18789 | 41034 ft | 530 kts | 102° |
| 2026-04-14 04:26 | -31.25432 | -91.10305 | 41031 ft | 530 kts | 102° |
| 2026-04-14 04:26 | -31.26719 | -91.01809 | 41049 ft | 530 kts | 102° |
| 2026-04-14 04:27 | -31.27997 | -90.93327 | 41036 ft | 530 kts | 102° |
| 2026-04-14 04:27 | -31.29272 | -90.84832 | 41036 ft | 530 kts | 102° |
| 2026-04-14 04:28 | -31.30533 | -90.76390 | 41037 ft | 530 kts | 102° |
| 2026-04-14 04:28 | -31.31794 | -90.67905 | 41037 ft | 529 kts | 102° |
| 2026-04-14 04:29 | -31.33050 | -90.59416 | 41035 ft | 529 kts | 102° |
| 2026-04-14 04:29 | -31.34300 | -90.50924 | 41036 ft | 529 kts | 102° |
| 2026-04-14 04:30 | -31.35544 | -90.42441 | 41034 ft | 529 kts | 102° |
| 2026-04-14 04:30 | -31.36781 | -90.33956 | 41035 ft | 529 kts | 102° |
| 2026-04-14 04:31 | -31.38011 | -90.25480 | 41033 ft | 529 kts | 102° |
| 2026-04-14 04:31 | -31.39849 | -90.12744 | 41031 ft | 528 kts | 102° |
| 2026-04-14 04:32 | -31.41067 | -90.04251 | 41031 ft | 528 kts | 102° |
| 2026-04-14 04:32 | -31.42289 | -89.95760 | 41033 ft | 531 kts | 100° |
| 2026-04-14 04:33 | -31.43549 | -89.87171 | 41035 ft | 538 kts | 101° |
| 2026-04-14 04:33 | -31.44821 | -89.78479 | 41032 ft | 544 kts | 100° |
| 2026-04-14 04:34 | -31.46091 | -89.69732 | 41030 ft | 544 kts | 100° |
| 2026-04-14 04:34 | -31.47349 | -89.61007 | 41033 ft | 544 kts | 100° |
| 2026-04-14 04:35 | -31.48596 | -89.52319 | 41032 ft | 544 kts | 100° |
| 2026-04-14 04:35 | -31.49845 | -89.43576 | 41027 ft | 544 kts | 100° |
| 2026-04-14 04:36 | -31.51090 | -89.34816 | 41026 ft | 544 kts | 100° |
| 2026-04-14 04:36 | -31.52328 | -89.26064 | 41028 ft | 544 kts | 100° |
| 2026-04-14 04:37 | -31.53559 | -89.17308 | 41024 ft | 544 kts | 100° |
| 2026-04-14 04:37 | -31.54786 | -89.08543 | 41028 ft | 544 kts | 100° |
| 2026-04-14 04:38 | -31.56006 | -88.99783 | 41027 ft | 545 kts | 100° |
| 2026-04-14 04:38 | -31.57220 | -88.91018 | 41026 ft | 545 kts | 100° |
| 2026-04-14 04:39 | -31.58429 | -88.82243 | 41026 ft | 545 kts | 100° |
| 2026-04-14 04:39 | -31.59633 | -88.73465 | 41024 ft | 545 kts | 100° |
| 2026-04-14 04:40 | -31.60831 | -88.64679 | 41025 ft | 546 kts | 99° |
| 2026-04-14 04:41 | -31.62612 | -88.51529 | 41020 ft | 546 kts | 99° |
| 2026-04-14 04:41 | -31.63796 | -88.42732 | 41024 ft | 546 kts | 99° |
| 2026-04-14 04:42 | -31.64975 | -88.33928 | 41022 ft | 546 kts | 99° |
| 2026-04-14 04:42 | -31.66147 | -88.25125 | 41021 ft | 546 kts | 99° |
| 2026-04-14 04:43 | -31.67313 | -88.16316 | 41021 ft | 546 kts | 99° |
| 2026-04-14 04:43 | -31.68475 | -88.07492 | 41023 ft | 546 kts | 99° |
| 2026-04-14 04:44 | -31.69435 | -88.00169 | 41022 ft | 546 kts | 99° |
| 2026-04-14 04:44 | -31.70585 | -87.91344 | 41010 ft | 546 kts | 99° |
| 2026-04-14 04:45 | -31.71730 | -87.82516 | 41023 ft | 547 kts | 99° |
| 2026-04-14 04:45 | -31.72869 | -87.73677 | 41025 ft | 546 kts | 99° |
| 2026-04-14 04:46 | -31.73995 | -87.64895 | 41021 ft | 547 kts | 99° |
| 2026-04-14 04:46 | -31.75123 | -87.56055 | 41019 ft | 547 kts | 99° |
| 2026-04-14 04:47 | -31.76243 | -87.47216 | 41027 ft | 547 kts | 99° |
| 2026-04-14 04:47 | -31.77357 | -87.38380 | 41030 ft | 547 kts | 99° |
| 2026-04-14 04:48 | -31.78470 | -87.29496 | 41017 ft | 547 kts | 99° |
| 2026-04-14 04:48 | -31.79569 | -87.20675 | 41025 ft | 547 kts | 99° |
| 2026-04-14 04:49 | -31.80673 | -87.11767 | 41019 ft | 547 kts | 99° |
| 2026-04-14 04:49 | -31.81757 | -87.02963 | 41022 ft | 547 kts | 99° |
| 2026-04-14 04:50 | -31.82842 | -86.94105 | 41019 ft | 547 kts | 99° |
| 2026-04-14 04:50 | -31.83921 | -86.85241 | 41019 ft | 547 kts | 99° |
| 2026-04-14 04:51 | -31.84993 | -86.76380 | 41021 ft | 547 kts | 99° |
| 2026-04-14 04:51 | -31.86061 | -86.67500 | 41023 ft | 547 kts | 99° |
| 2026-04-14 04:52 | -31.87122 | -86.58630 | 41012 ft | 547 kts | 99° |
| 2026-04-14 04:52 | -31.88175 | -86.49761 | 41021 ft | 547 kts | 98° |
| 2026-04-14 04:53 | -31.89219 | -86.40929 | 41016 ft | 547 kts | 98° |
| 2026-04-14 04:53 | -31.90258 | -86.32074 | 41013 ft | 547 kts | 98° |
| 2026-04-14 04:54 | -31.91297 | -86.23175 | 41014 ft | 547 kts | 98° |
| 2026-04-14 04:54 | -31.92333 | -86.14237 | 41015 ft | 547 kts | 98° |
| 2026-04-14 04:55 | -31.93349 | -86.05416 | 41017 ft | 547 kts | 98° |
| 2026-04-14 04:55 | -31.94369 | -85.96508 | 41022 ft | 547 kts | 98° |
| 2026-04-14 04:56 | -31.95381 | -85.87620 | 41021 ft | 547 kts | 98° |
| 2026-04-14 04:56 | -31.96386 | -85.78731 | 41023 ft | 547 kts | 98° |
| 2026-04-14 04:57 | -31.97385 | -85.69835 | 41016 ft | 547 kts | 98° |
| 2026-04-14 04:57 | -31.98372 | -85.60995 | 41020 ft | 547 kts | 98° |
| 2026-04-14 04:58 | -31.99358 | -85.52104 | 41015 ft | 547 kts | 98° |
| 2026-04-14 04:58 | -32.00338 | -85.43212 | 41019 ft | 547 kts | 98° |
| 2026-04-14 04:59 | -32.01312 | -85.34308 | 41020 ft | 547 kts | 98° |
| 2026-04-14 04:59 | -32.02281 | -85.25402 | 41018 ft | 547 kts | 98° |
| 2026-04-14 05:00 | -32.03241 | -85.16514 | 41017 ft | 547 kts | 98° |
| 2026-04-14 05:00 | -32.04197 | -85.07605 | 41017 ft | 547 kts | 98° |
| 2026-04-14 05:01 | -32.05145 | -84.98702 | 41020 ft | 547 kts | 98° |
| 2026-04-14 05:01 | -32.06039 | -84.89841 | 41018 ft | 547 kts | 97° |
| 2026-04-14 05:02 | -32.06910 | -84.80925 | 41016 ft | 547 kts | 97° |
| 2026-04-14 05:02 | -32.07778 | -84.72005 | 41017 ft | 547 kts | 97° |
| 2026-04-14 05:03 | -32.08647 | -84.63078 | 41020 ft | 547 kts | 97° |
| 2026-04-14 05:03 | -32.09511 | -84.54158 | 41020 ft | 547 kts | 97° |
| 2026-04-14 05:04 | -32.10368 | -84.45239 | 41018 ft | 547 kts | 97° |
| 2026-04-14 05:04 | -32.11215 | -84.36355 | 41023 ft | 547 kts | 97° |
| 2026-04-14 05:05 | -32.12058 | -84.27441 | 41020 ft | 547 kts | 97° |
| 2026-04-14 05:05 | -32.12896 | -84.18506 | 41022 ft | 547 kts | 97° |
| 2026-04-14 05:06 | -32.13728 | -84.09580 | 41021 ft | 547 kts | 97° |
| 2026-04-14 05:06 | -32.14548 | -84.00708 | 41024 ft | 547 kts | 97° |
| 2026-04-14 05:07 | -32.15368 | -83.91773 | 41028 ft | 547 kts | 97° |
| 2026-04-14 05:07 | -32.16181 | -83.82842 | 41023 ft | 547 kts | 97° |
| 2026-04-14 05:08 | -32.16986 | -83.73922 | 41025 ft | 547 kts | 97° |
| 2026-04-14 05:08 | -32.17788 | -83.64964 | 41026 ft | 547 kts | 97° |
| 2026-04-14 05:09 | -32.18583 | -83.56024 | 41031 ft | 547 kts | 97° |
| 2026-04-14 05:09 | -32.19371 | -83.47080 | 41031 ft | 547 kts | 97° |
| 2026-04-14 05:10 | -32.20152 | -83.38142 | 41029 ft | 547 kts | 97° |
| 2026-04-14 05:10 | -32.20922 | -83.29266 | 41031 ft | 546 kts | 97° |
| 2026-04-14 05:11 | -32.21694 | -83.20284 | 41030 ft | 546 kts | 97° |
| 2026-04-14 05:11 | -32.22454 | -83.11371 | 41030 ft | 546 kts | 97° |
| 2026-04-14 05:12 | -32.23208 | -83.02457 | 41027 ft | 545 kts | 97° |
| 2026-04-14 05:12 | -32.23955 | -82.93548 | 41024 ft | 545 kts | 97° |
| 2026-04-14 05:13 | -32.24696 | -82.84631 | 41028 ft | 545 kts | 97° |
| 2026-04-14 05:13 | -32.25429 | -82.75730 | 41027 ft | 545 kts | 97° |
| 2026-04-14 05:14 | -32.26154 | -82.66857 | 41028 ft | 545 kts | 97° |
| 2026-04-14 05:14 | -32.26876 | -82.57943 | 41028 ft | 545 kts | 97° |
| 2026-04-14 05:15 | -32.27591 | -82.49033 | 41027 ft | 545 kts | 97° |
| 2026-04-14 05:15 | -32.28300 | -82.40119 | 41028 ft | 545 kts | 97° |
| 2026-04-14 05:16 | -32.29003 | -82.31199 | 41028 ft | 545 kts | 97° |
| 2026-04-14 05:16 | -32.29700 | -82.22279 | 41029 ft | 545 kts | 97° |
| 2026-04-14 05:17 | -32.30387 | -82.13407 | 41029 ft | 544 kts | 97° |
| 2026-04-14 05:17 | -32.31070 | -82.04490 | 41031 ft | 544 kts | 97° |
| 2026-04-14 05:18 | -32.31749 | -81.95554 | 41030 ft | 544 kts | 97° |
| 2026-04-14 05:18 | -32.32416 | -81.86695 | 41028 ft | 544 kts | 97° |
| 2026-04-14 05:19 | -32.33082 | -81.77766 | 41029 ft | 544 kts | 97° |
| 2026-04-14 05:19 | -32.33739 | -81.68857 | 41030 ft | 544 kts | 97° |
| 2026-04-14 05:20 | -32.34390 | -81.59955 | 41029 ft | 543 kts | 97° |
| 2026-04-14 05:20 | -32.35035 | -81.51044 | 41029 ft | 543 kts | 97° |
| 2026-04-14 05:21 | -32.35674 | -81.42141 | 41028 ft | 543 kts | 97° |
| 2026-04-14 05:21 | -32.36308 | -81.33212 | 41029 ft | 542 kts | 96° |
| 2026-04-14 05:22 | -32.36928 | -81.24378 | 41030 ft | 542 kts | 96° |
| 2026-04-14 05:22 | -32.37546 | -81.15495 | 41030 ft | 542 kts | 96° |
| 2026-04-14 05:23 | -32.38159 | -81.06593 | 41033 ft | 542 kts | 96° |
| 2026-04-14 05:23 | -32.38663 | -80.99206 | 41034 ft | 541 kts | 96° |
| 2026-04-14 05:24 | -32.39263 | -80.90328 | 41033 ft | 541 kts | 96° |
| 2026-04-14 05:24 | -32.39857 | -80.81437 | 41029 ft | 541 kts | 96° |
| 2026-04-14 05:25 | -32.40443 | -80.72569 | 41030 ft | 541 kts | 96° |
| 2026-04-14 05:25 | -32.41023 | -80.63699 | 41029 ft | 541 kts | 96° |
| 2026-04-14 05:26 | -32.41598 | -80.54826 | 41032 ft | 540 kts | 96° |
| 2026-04-14 05:26 | -32.42165 | -80.45967 | 41025 ft | 540 kts | 96° |
| 2026-04-14 05:27 | -32.42724 | -80.37132 | 41025 ft | 540 kts | 96° |
| 2026-04-14 05:27 | -32.43280 | -80.28241 | 41027 ft | 540 kts | 96° |
| 2026-04-14 05:28 | -32.43829 | -80.19371 | 41026 ft | 539 kts | 96° |
| 2026-04-14 05:28 | -32.44372 | -80.10503 | 41026 ft | 539 kts | 96° |
| 2026-04-14 05:29 | -32.44908 | -80.01636 | 41029 ft | 539 kts | 96° |
| 2026-04-14 05:29 | -32.45466 | -79.92843 | 41030 ft | 538 kts | 97° |
| 2026-04-14 05:30 | -32.46092 | -79.84021 | 41031 ft | 538 kts | 97° |
| 2026-04-14 05:30 | -32.46713 | -79.75188 | 41031 ft | 537 kts | 97° |
| 2026-04-14 05:31 | -32.47316 | -79.66361 | 41031 ft | 537 kts | 97° |
| 2026-04-14 05:31 | -32.47904 | -79.57561 | 41032 ft | 536 kts | 97° |
| 2026-04-14 05:32 | -32.48486 | -79.48755 | 41034 ft | 536 kts | 97° |
| 2026-04-14 05:32 | -32.49061 | -79.39987 | 41031 ft | 535 kts | 97° |
| 2026-04-14 05:33 | -32.49631 | -79.31185 | 41031 ft | 535 kts | 97° |
| 2026-04-14 05:33 | -32.50194 | -79.22404 | 41032 ft | 535 kts | 97° |
| 2026-04-14 05:34 | -32.51026 | -79.09251 | 41033 ft | 534 kts | 97° |
| 2026-04-14 05:34 | -32.51573 | -79.00467 | 41031 ft | 533 kts | 97° |
| 2026-04-14 05:35 | -32.52114 | -78.91694 | 41028 ft | 533 kts | 97° |
| 2026-04-14 05:35 | -32.52648 | -78.82941 | 41031 ft | 533 kts | 97° |
| 2026-04-14 05:36 | -32.53177 | -78.74162 | 41028 ft | 532 kts | 96° |
| 2026-04-14 05:36 | -32.53698 | -78.65414 | 41030 ft | 532 kts | 96° |
| 2026-04-14 05:37 | -32.54209 | -78.56721 | 41032 ft | 532 kts | 96° |
| 2026-04-14 05:37 | -32.54721 | -78.47923 | 41031 ft | 531 kts | 96° |
| 2026-04-14 05:38 | -32.55222 | -78.39196 | 41033 ft | 531 kts | 96° |
| 2026-04-14 05:38 | -32.55718 | -78.30455 | 41031 ft | 531 kts | 96° |
| 2026-04-14 05:39 | -32.56208 | -78.21723 | 41037 ft | 531 kts | 96° |
| 2026-04-14 05:39 | -32.56690 | -78.13019 | 41037 ft | 530 kts | 96° |
| 2026-04-14 05:40 | -32.57167 | -78.04284 | 41032 ft | 530 kts | 96° |
| 2026-04-14 05:40 | -32.57638 | -77.95564 | 41038 ft | 530 kts | 96° |
| 2026-04-14 05:41 | -32.58102 | -77.86840 | 41038 ft | 529 kts | 96° |
| 2026-04-14 05:41 | -32.58559 | -77.78155 | 41034 ft | 529 kts | 96° |
| 2026-04-14 05:42 | -32.59013 | -77.69412 | 41028 ft | 529 kts | 96° |
| 2026-04-14 05:42 | -32.59458 | -77.60711 | 41037 ft | 528 kts | 96° |
| 2026-04-14 05:43 | -32.59898 | -77.51989 | 41037 ft | 528 kts | 96° |
| 2026-04-14 05:43 | -32.60331 | -77.43299 | 41034 ft | 528 kts | 96° |
| 2026-04-14 05:44 | -32.60756 | -77.34652 | 41030 ft | 527 kts | 96° |
| 2026-04-14 05:44 | -32.61178 | -77.25917 | 41033 ft | 527 kts | 96° |
| 2026-04-14 05:45 | -32.61589 | -77.17305 | 41034 ft | 526 kts | 96° |
| 2026-04-14 05:45 | -32.61997 | -77.08626 | 41025 ft | 526 kts | 96° |
| 2026-04-14 05:46 | -32.62399 | -76.99966 | 41028 ft | 525 kts | 96° |
| 2026-04-14 05:46 | -32.62793 | -76.91321 | 41037 ft | 525 kts | 96° |
| 2026-04-14 05:47 | -32.63182 | -76.82673 | 41039 ft | 524 kts | 96° |
| 2026-04-14 05:47 | -32.63565 | -76.74039 | 41035 ft | 524 kts | 96° |
| 2026-04-14 05:48 | -32.63941 | -76.65400 | 41040 ft | 524 kts | 96° |
| 2026-04-14 05:48 | -32.64311 | -76.56776 | 41036 ft | 523 kts | 96° |
| 2026-04-14 05:49 | -32.64673 | -76.48194 | 41040 ft | 523 kts | 96° |
| 2026-04-14 05:49 | -32.65031 | -76.39573 | 41033 ft | 523 kts | 96° |
| 2026-04-14 05:50 | -32.65384 | -76.30935 | 41038 ft | 523 kts | 95° |
| 2026-04-14 05:50 | -32.65730 | -76.22330 | 41035 ft | 522 kts | 95° |
| 2026-04-14 05:51 | -32.66067 | -76.13779 | 41034 ft | 522 kts | 95° |
| 2026-04-14 05:51 | -32.66401 | -76.05162 | 41037 ft | 522 kts | 95° |
| 2026-04-14 05:52 | -32.66729 | -75.96561 | 41042 ft | 521 kts | 95° |
| 2026-04-14 05:52 | -32.67050 | -75.87979 | 41038 ft | 521 kts | 95° |
| 2026-04-14 05:53 | -32.67367 | -75.79356 | 41044 ft | 521 kts | 95° |
| 2026-04-14 05:53 | -32.67676 | -75.70755 | 41039 ft | 521 kts | 95° |
| 2026-04-14 05:54 | -32.67980 | -75.62176 | 41041 ft | 520 kts | 95° |
| 2026-04-14 05:54 | -32.68278 | -75.53582 | 41043 ft | 520 kts | 95° |
| 2026-04-14 05:55 | -32.68569 | -75.45006 | 41041 ft | 520 kts | 95° |
| 2026-04-14 05:55 | -32.68855 | -75.36437 | 41040 ft | 519 kts | 95° |
| 2026-04-14 05:56 | -32.69136 | -75.27820 | 41043 ft | 519 kts | 95° |
| 2026-04-14 05:56 | -32.69408 | -75.19306 | 41039 ft | 519 kts | 95° |
| 2026-04-14 05:57 | -32.69675 | -75.10749 | 41041 ft | 518 kts | 95° |
| 2026-04-14 05:57 | -32.69938 | -75.02144 | 41043 ft | 518 kts | 95° |
| 2026-04-14 05:58 | -32.70181 | -74.93588 | 41043 ft | 518 kts | 95° |
| 2026-04-14 05:58 | -32.70343 | -74.86498 | 41043 ft | 518 kts | 94° |
| 2026-04-14 05:59 | -32.70530 | -74.77939 | 41042 ft | 517 kts | 94° |
| 2026-04-14 05:59 | -32.70719 | -74.69346 | 41043 ft | 517 kts | 94° |
| 2026-04-14 06:00 | -32.70904 | -74.60868 | 41041 ft | 517 kts | 94° |
| 2026-04-14 06:00 | -32.71085 | -74.52343 | 41046 ft | 516 kts | 94° |
| 2026-04-14 06:01 | -32.71259 | -74.43817 | 41047 ft | 516 kts | 94° |
| 2026-04-14 06:01 | -32.71428 | -74.35296 | 41047 ft | 516 kts | 94° |
| 2026-04-14 06:02 | -32.71592 | -74.26726 | 41042 ft | 515 kts | 94° |
| 2026-04-14 06:02 | -32.71749 | -74.18222 | 41050 ft | 515 kts | 94° |
| 2026-04-14 06:03 | -32.71900 | -74.09726 | 41047 ft | 515 kts | 94° |
| 2026-04-14 06:04 | -32.72105 | -73.97627 | 41045 ft | 514 kts | 95° |
| 2026-04-14 06:04 | -32.72242 | -73.89125 | 41048 ft | 514 kts | 95° |
| 2026-04-14 06:05 | -32.72374 | -73.80615 | 41050 ft | 514 kts | 94° |
| 2026-04-14 06:05 | -32.72498 | -73.72194 | 41049 ft | 514 kts | 94° |
| 2026-04-14 06:06 | -32.72618 | -73.63702 | 41049 ft | 513 kts | 94° |
| 2026-04-14 06:06 | -32.72732 | -73.55222 | 41049 ft | 513 kts | 94° |
| 2026-04-14 06:07 | -32.72841 | -73.46746 | 41050 ft | 513 kts | 94° |
| 2026-04-14 06:07 | -32.72943 | -73.38274 | 41050 ft | 513 kts | 94° |
| 2026-04-14 06:08 | -32.73040 | -73.29780 | 41048 ft | 513 kts | 94° |
| 2026-04-14 06:08 | -32.73131 | -73.21314 | 41051 ft | 513 kts | 94° |
| 2026-04-14 06:09 | -32.73216 | -73.12826 | 41054 ft | 513 kts | 94° |
| 2026-04-14 06:09 | -32.73296 | -73.04313 | 41054 ft | 513 kts | 94° |
| 2026-04-14 06:10 | -32.73377 | -72.95896 | 41040 ft | 512 kts | 94° |
| 2026-04-14 06:10 | -32.73415 | -72.91610 | 40809 ft | 513 kts | 95° |
| 2026-04-14 06:10 | -32.73449 | -72.87393 | 40593 ft | 506 kts | 95° |
| 2026-04-14 06:10 | -32.73480 | -72.83196 | 39877 ft | 508 kts | 95° |
| 2026-04-14 06:11 | -32.73512 | -72.78991 | 39116 ft | 512 kts | 96° |
| 2026-04-14 06:11 | -32.73544 | -72.74806 | 38375 ft | 514 kts | 96° |
| 2026-04-14 06:11 | -32.73578 | -72.70564 | 37635 ft | 514 kts | 96° |
| 2026-04-14 06:11 | -32.73610 | -72.66304 | 36951 ft | 513 kts | 96° |
| 2026-04-14 06:12 | -32.73638 | -72.62069 | 36286 ft | 511 kts | 95° |
| 2026-04-14 06:12 | -32.73665 | -72.57850 | 35617 ft | 510 kts | 95° |
| 2026-04-14 06:12 | -32.73691 | -72.53642 | 34950 ft | 508 kts | 95° |
| 2026-04-14 06:12 | -32.73714 | -72.49449 | 34285 ft | 507 kts | 95° |
| 2026-04-14 06:13 | -32.73737 | -72.45262 | 33532 ft | 505 kts | 94° |
| 2026-04-14 06:13 | -32.73759 | -72.41090 | 32632 ft | 507 kts | 94° |
| 2026-04-14 06:13 | -32.73781 | -72.36892 | 31666 ft | 510 kts | 93° |
| 2026-04-14 06:13 | -32.73801 | -72.32658 | 30697 ft | 513 kts | 92° |
| 2026-04-14 06:14 | -32.73819 | -72.28408 | 29689 ft | 516 kts | 92° |
| 2026-04-14 06:14 | -32.73832 | -72.24164 | 28943 ft | 511 kts | 92° |
| 2026-04-14 06:14 | -32.73843 | -72.19970 | 28280 ft | 506 kts | 92° |
| 2026-04-14 06:14 | -32.73854 | -72.15853 | 27640 ft | 501 kts | 91° |
| 2026-04-14 06:15 | -32.73864 | -72.11746 | 27007 ft | 495 kts | 91° |
| 2026-04-14 06:15 | -32.73874 | -72.07673 | 26377 ft | 491 kts | 91° |
| 2026-04-14 06:15 | -32.73882 | -72.03632 | 25747 ft | 487 kts | 91° |
| 2026-04-14 06:15 | -32.73889 | -71.99627 | 25124 ft | 483 kts | 91° |
| 2026-04-14 06:16 | -32.73895 | -71.95646 | 24505 ft | 479 kts | 90° |
| 2026-04-14 06:16 | -32.73899 | -71.91699 | 23890 ft | 476 kts | 90° |
| 2026-04-14 06:16 | -32.73902 | -71.87780 | 23213 ft | 472 kts | 90° |
| 2026-04-14 06:16 | -32.73904 | -71.83910 | 22590 ft | 467 kts | 90° |
| 2026-04-14 06:17 | -32.73905 | -71.80070 | 21984 ft | 462 kts | 89° |
| 2026-04-14 06:17 | -32.73904 | -71.76267 | 21375 ft | 458 kts | 89° |
| 2026-04-14 06:17 | -32.73902 | -71.72502 | 20778 ft | 454 kts | 89° |
| 2026-04-14 06:17 | -32.73899 | -71.68759 | 20176 ft | 450 kts | 89° |
| 2026-04-14 06:18 | -32.73895 | -71.65058 | 19584 ft | 447 kts | 89° |
| 2026-04-14 06:18 | -32.73890 | -71.61376 | 18968 ft | 444 kts | 88° |
| 2026-04-14 06:18 | -32.73884 | -71.57720 | 18357 ft | 441 kts | 88° |
| 2026-04-14 06:18 | -32.73877 | -71.54085 | 17686 ft | 437 kts | 88° |
| 2026-04-14 06:19 | -32.73930 | -71.50490 | 17070 ft | 434 kts | 92° |
| 2026-04-14 06:19 | -32.74537 | -71.46997 | 16502 ft | 432 kts | 105° |
| 2026-04-14 06:19 | -32.75474 | -71.43618 | 15883 ft | 430 kts | 107° |
| 2026-04-14 06:19 | -32.76425 | -71.40246 | 15257 ft | 427 kts | 106° |
| 2026-04-14 06:20 | -32.77338 | -71.36968 | 14653 ft | 424 kts | 106° |
| 2026-04-14 06:20 | -32.78271 | -71.33598 | 14022 ft | 421 kts | 105° |
| 2026-04-14 06:20 | -32.79188 | -71.30272 | 13556 ft | 413 kts | 105° |
| 2026-04-14 06:20 | -32.80060 | -71.27095 | 13404 ft | 396 kts | 105° |
| 2026-04-14 06:21 | -32.80895 | -71.24053 | 13262 ft | 379 kts | 105° |
| 2026-04-14 06:21 | -32.81707 | -71.21083 | 13131 ft | 364 kts | 105° |
| 2026-04-14 06:21 | -32.82474 | -71.18282 | 12985 ft | 350 kts | 105° |
| 2026-04-14 06:21 | -32.83215 | -71.15587 | 12851 ft | 337 kts | 105° |
| 2026-04-14 06:22 | -32.83922 | -71.12971 | 12706 ft | 326 kts | 105° |
| 2026-04-14 06:22 | -32.84607 | -71.10439 | 12557 ft | 315 kts | 105° |
| 2026-04-14 06:22 | -32.85266 | -71.08004 | 12379 ft | 306 kts | 105° |
| 2026-04-14 06:22 | -32.85911 | -71.05617 | 12085 ft | 299 kts | 105° |
| 2026-04-14 06:23 | -32.86543 | -71.03281 | 11739 ft | 292 kts | 105° |
| 2026-04-14 06:23 | -32.87160 | -71.00997 | 11428 ft | 290 kts | 105° |
| 2026-04-14 06:23 | -32.87727 | -70.98707 | 11145 ft | 286 kts | 103° |
| 2026-04-14 06:23 | -32.88251 | -70.96463 | 10851 ft | 283 kts | 103° |
| 2026-04-14 06:24 | -32.88788 | -70.94185 | 10532 ft | 281 kts | 103° |
| 2026-04-14 06:24 | -32.89319 | -70.91956 | 10283 ft | 277 kts | 103° |
| 2026-04-14 06:24 | -32.89845 | -70.89757 | 10020 ft | 275 kts | 104° |
| 2026-04-14 06:24 | -32.90368 | -70.87573 | 9721 ft | 275 kts | 104° |
| 2026-04-14 06:25 | -32.90892 | -70.85387 | 9436 ft | 274 kts | 104° |
| 2026-04-14 06:25 | -32.91527 | -70.83253 | 9149 ft | 274 kts | 116° |
| 2026-04-14 06:25 | -32.92805 | -70.81589 | 8886 ft | 274 kts | 148° |
| 2026-04-14 06:25 | -32.94593 | -70.80901 | 8624 ft | 273 kts | 174° |
| 2026-04-14 06:26 | -32.96487 | -70.80776 | 8328 ft | 273 kts | 179° |
| 2026-04-14 06:26 | -32.97770 | -70.80733 | 8091 ft | 272 kts | 179° |
| 2026-04-14 06:26 | -32.99663 | -70.80663 | 7754 ft | 272 kts | 178° |
| 2026-04-14 06:26 | -33.01548 | -70.80582 | 7421 ft | 270 kts | 178° |
| 2026-04-14 06:27 | -33.03416 | -70.80497 | 7092 ft | 268 kts | 178° |
| 2026-04-14 06:27 | -33.05271 | -70.80400 | 6762 ft | 267 kts | 178° |
| 2026-04-14 06:27 | -33.07126 | -70.80306 | 6432 ft | 265 kts | 178° |
| 2026-04-14 06:27 | -33.08937 | -70.80210 | 6284 ft | 256 kts | 178° |
| 2026-04-14 06:28 | -33.10685 | -70.80116 | 6147 ft | 246 kts | 178° |
| 2026-04-14 06:28 | -33.12365 | -70.80025 | 6007 ft | 238 kts | 178° |
| 2026-04-14 06:28 | -33.14012 | -70.79938 | 5878 ft | 229 kts | 178° |
| 2026-04-14 06:28 | -33.15573 | -70.79854 | 5764 ft | 219 kts | 178° |
| 2026-04-14 06:29 | -33.17061 | -70.79776 | 5596 ft | 211 kts | 178° |
| 2026-04-14 06:29 | -33.18514 | -70.79699 | 5324 ft | 207 kts | 178° |
| 2026-04-14 06:29 | -33.19946 | -70.79621 | 5052 ft | 205 kts | 178° |
| 2026-04-14 06:29 | -33.21370 | -70.79544 | 4762 ft | 204 kts | 178° |
| 2026-04-14 06:30 | -33.22783 | -70.79469 | 4474 ft | 202 kts | 178° |
| 2026-04-14 06:30 | -33.24176 | -70.79394 | 4196 ft | 199 kts | 178° |
| 2026-04-14 06:30 | -33.25553 | -70.79320 | 3932 ft | 196 kts | 178° |
| 2026-04-14 06:30 | -33.26904 | -70.79247 | 3679 ft | 193 kts | 178° |
| 2026-04-14 06:31 | -33.28219 | -70.79176 | 3428 ft | 184 kts | 178° |
| 2026-04-14 06:31 | -33.29468 | -70.79110 | 3180 ft | 175 kts | 178° |
| 2026-04-14 06:31 | -33.30653 | -70.79046 | 2939 ft | 165 kts | 178° |
| 2026-04-14 06:31 | -33.31768 | -70.78986 | 2732 ft | 156 kts | 177° |
| 2026-04-14 06:32 | -33.32827 | -70.78929 | 2506 ft | 148 kts | 177° |
| 2026-04-14 06:32 | -33.33827 | -70.78874 | 2320 ft | 141 kts | 177° |
| 2026-04-14 06:32 | -33.34791 | -70.78822 | 2141 ft | 140 kts | 177° |
| 2026-04-14 06:32 | -33.35776 | -70.78768 | 1958 ft | 140 kts | 178° |
| 2026-04-14 06:33 | -33.36755 | -70.78710 | 1776 ft | 141 kts | 179° |
| 2026-04-14 06:33 | -33.37719 | -70.78668 | 1620 ft | 140 kts | 178° |
| 2026-04-14 06:33 | -33.38642 | -70.78614 | 1570 ft | 108 kts | 178° |
| 2026-04-14 06:34 | -33.39422 | -70.78580 | 1570 ft | 33 kts | 184° |
| 2026-04-14 06:34 | -33.39569 | -70.78625 | 1570 ft | 16 kts | 202° |
| 2026-04-14 06:34 | -33.39668 | -70.78681 | 1571 ft | 16 kts | 205° |
| 2026-04-14 06:34 | -33.39734 | -70.78721 | 1571 ft | 0 kts | 210° |
| 2026-04-14 06:35 | -33.39744 | -70.78728 | 1571 ft | 4 kts | 210° |
| 2026-04-14 06:35 | -33.39777 | -70.78751 | 1571 ft | 7 kts | 210° |
| 2026-04-14 06:35 | -33.39829 | -70.78784 | 1570 ft | 10 kts | 207° |
| 2026-04-14 06:35 | -33.39898 | -70.78826 | 1570 ft | 12 kts | 207° |
| 2026-04-14 06:36 | -33.39984 | -70.78863 | 1570 ft | 14 kts | 182° |
| 2026-04-14 06:36 | -33.40077 | -70.78860 | 1570 ft | 9 kts | 178° |
| 2026-04-14 06:36 | -33.40129 | -70.78887 | 1570 ft | 9 kts | 237° |
| 2026-04-14 06:36 | -33.40129 | -70.78951 | 1570 ft | 3 kts | 308° |
| 2026-04-14 06:37 | -33.40115 | -70.78953 | 1570 ft | 3 kts | 352° |
| 2026-04-14 06:37 | -33.40087 | -70.78957 | 1570 ft | 5 kts | 357° |
| 2026-04-14 06:37 | -33.40082 | -70.78957 | 1570 ft | 1 kts | 357° |
| 2026-04-14 06:37 | -33.40059 | -70.78958 | 1570 ft | 5 kts | 357° |
| 2026-04-14 06:38 | -33.40052 | -70.78958 | 1570 ft | 0 kts | 357° |